createdAt,value
2023-01-17T00:02:11.084Z,9.43
2023-01-17T00:04:56.411Z,10.37
2023-01-17T00:07:43.455Z,11.13
2023-01-17T00:10:16.588Z,10.93
2023-01-17T00:12:55.147Z,10.43
2023-01-17T00:15:25.935Z,10.20
2023-01-17T00:17:53.820Z,9.70
2023-01-17T00:20:42.656Z,9.00
2023-01-17T00:23:43.254Z,10.33
2023-01-17T00:26:13.677Z,8.47
2023-01-17T00:28:42.712Z,10.87
2023-01-17T00:31:11.168Z,10.17
2023-01-17T00:33:38.318Z,12.47
2023-01-17T00:36:06.648Z,10.03
2023-01-17T00:38:36.032Z,11.07
2023-01-17T00:41:08.771Z,11.83
2023-01-17T00:43:54.614Z,9.60
2023-01-17T00:46:41.129Z,10.07
2023-01-17T00:49:26.996Z,9.90
2023-01-17T00:52:12.561Z,9.67
2023-01-17T00:54:57.975Z,9.80
2023-01-17T00:57:43.909Z,11.37
2023-01-17T01:00:30.441Z,9.87
2023-01-17T01:03:17.000Z,11.17
2023-01-17T01:06:02.785Z,12.70
2023-01-17T01:08:49.615Z,13.10
2023-01-17T01:11:38.088Z,12.20
2023-01-17T01:14:24.936Z,10.77
2023-01-17T01:17:10.404Z,11.97
2023-01-17T01:19:55.926Z,13.37
2023-01-17T01:22:41.808Z,13.10
2023-01-17T01:25:27.374Z,12.23
2023-01-17T01:28:25.525Z,15.10
2023-01-17T01:31:10.843Z,14.43
2023-01-17T01:33:37.992Z,11.80
2023-01-17T01:36:08.890Z,14.90
2023-01-17T01:38:35.960Z,13.13
2023-01-17T01:41:02.861Z,13.67
2023-01-17T01:43:46.614Z,12.97
2023-01-17T01:46:38.588Z,12.67
2023-01-17T01:49:21.949Z,13.43
2023-01-17T01:51:58.457Z,12.20
2023-01-17T01:54:39.354Z,16.77
2023-01-17T01:57:11.021Z,15.63
2023-01-17T01:59:47.798Z,13.00
2023-01-17T02:02:15.652Z,16.13
2023-01-17T02:04:44.750Z,13.10
2023-01-17T02:07:17.581Z,14.40
2023-01-17T02:09:45.576Z,14.83
2023-01-17T02:12:13.032Z,13.60
2023-01-17T02:14:39.873Z,15.00
2023-01-17T02:17:37.745Z,14.77
2023-01-17T02:20:50.709Z,14.53
2023-01-17T02:23:38.451Z,14.13
2023-01-17T02:26:25.652Z,16.93
2023-01-17T02:29:14.193Z,15.97
2023-01-17T02:32:01.243Z,14.37
2023-01-17T02:34:46.936Z,14.43
2023-01-17T02:37:55.684Z,13.63
2023-01-17T02:40:25.561Z,16.60
2023-01-17T02:42:57.947Z,20.37
2023-01-17T02:45:25.086Z,15.57
2023-01-17T02:47:51.957Z,18.30
2023-01-17T02:50:23.480Z,14.37
2023-01-17T02:52:55.485Z,15.33
2023-01-17T02:55:37.609Z,17.03
2023-01-17T02:58:19.922Z,15.83
2023-01-17T03:01:17.433Z,17.10
2023-01-17T03:03:52.074Z,14.97
2023-01-17T03:06:34.782Z,12.30
2023-01-17T03:09:02.909Z,15.07
2023-01-17T03:11:29.930Z,13.63
2023-01-17T03:13:57.783Z,12.70
2023-01-17T03:16:27.567Z,16.50
2023-01-17T03:18:54.397Z,14.03
2023-01-17T03:21:23.596Z,14.60
2023-01-17T03:23:50.670Z,16.97
2023-01-17T03:26:17.544Z,17.33
2023-01-17T03:28:44.583Z,14.37
2023-01-17T03:31:18.160Z,16.47
2023-01-17T03:33:44.965Z,17.77
2023-01-17T03:36:12.314Z,15.03
2023-01-17T03:38:39.186Z,19.53
2023-01-17T03:41:06.750Z,15.40
2023-01-17T03:43:33.824Z,17.33
2023-01-17T03:46:06.253Z,17.90
2023-01-17T03:48:33.962Z,14.23
2023-01-17T03:51:00.740Z,15.33
2023-01-17T03:53:27.594Z,16.57
2023-01-17T03:55:54.414Z,16.57
2023-01-17T03:58:21.301Z,14.73
2023-01-17T04:00:48.319Z,15.50
2023-01-17T04:03:15.418Z,15.23
2023-01-17T04:05:42.333Z,16.60
2023-01-17T04:08:09.525Z,13.63
2023-01-17T04:10:36.549Z,14.83
2023-01-17T04:13:03.416Z,17.00
2023-01-17T04:15:30.476Z,12.97
2023-01-17T04:17:57.849Z,15.90
2023-01-17T04:20:39.424Z,16.13
2023-01-17T04:23:08.055Z,14.70
2023-01-17T04:25:34.964Z,13.83
2023-01-17T04:28:03.833Z,12.00
2023-01-17T04:30:31.557Z,13.67
2023-01-17T04:32:59.197Z,14.73
2023-01-17T04:35:26.692Z,15.37
2023-01-17T04:37:53.628Z,13.70
2023-01-17T04:40:20.518Z,15.37
2023-01-17T04:42:48.461Z,12.43
2023-01-17T04:45:16.099Z,14.93
2023-01-17T04:47:43.293Z,12.60
2023-01-17T04:50:11.108Z,13.20
2023-01-17T04:52:38.103Z,13.93
2023-01-17T04:55:05.845Z,15.53
2023-01-17T04:57:33.929Z,11.53
2023-01-17T05:00:00.809Z,13.23
2023-01-17T05:02:27.931Z,14.10
2023-01-17T05:04:54.754Z,13.23
2023-01-17T05:07:21.739Z,11.93
2023-01-17T05:09:48.778Z,14.37
2023-01-17T05:12:15.587Z,18.30
2023-01-17T05:14:42.489Z,18.10
2023-01-17T05:17:11.270Z,14.37
2023-01-17T05:19:38.330Z,14.00
2023-01-17T05:22:14.847Z,12.10
2023-01-17T05:24:43.866Z,12.70
2023-01-17T05:27:12.569Z,13.83
2023-01-17T05:29:40.163Z,15.60
2023-01-17T05:32:07.318Z,16.33
2023-01-17T05:34:35.137Z,18.87
2023-01-17T05:37:02.192Z,16.77
2023-01-17T05:39:30.978Z,14.97
2023-01-17T05:41:58.473Z,14.23
2023-01-17T05:44:27.614Z,12.57
2023-01-17T05:46:55.053Z,12.37
2023-01-17T05:49:21.969Z,14.33
2023-01-17T05:51:48.816Z,16.20
2023-01-17T05:54:15.970Z,15.67
2023-01-17T05:56:43.005Z,12.27
2023-01-17T05:59:11.510Z,16.23
2023-01-17T06:01:39.463Z,15.17
2023-01-17T06:04:06.564Z,15.73
2023-01-17T06:06:33.388Z,14.07
2023-01-17T06:09:00.299Z,14.07
2023-01-17T06:11:27.436Z,14.50
2023-01-17T06:13:54.443Z,14.33
2023-01-17T06:16:21.295Z,17.07
2023-01-17T06:18:48.131Z,15.83
2023-01-17T06:21:14.963Z,12.23
2023-01-17T06:23:41.842Z,9.63
2023-01-17T06:26:09.567Z,12.23
2023-01-17T06:28:36.443Z,10.67
2023-01-17T06:31:08.523Z,12.87
2023-01-17T06:33:35.493Z,10.50
2023-01-17T06:36:02.408Z,13.33
2023-01-17T06:38:29.981Z,10.23
2023-01-17T06:41:00.376Z,10.93
2023-01-17T06:43:32.774Z,13.37
2023-01-17T06:46:00.908Z,12.93
2023-01-17T06:48:27.984Z,15.30
2023-01-17T06:50:54.962Z,11.63
2023-01-17T06:53:22.002Z,12.43
2023-01-17T06:55:50.060Z,11.20
2023-01-17T06:58:16.890Z,9.77
2023-01-17T07:00:44.669Z,13.00
2023-01-17T07:03:23.196Z,12.17
2023-01-17T07:05:50.677Z,13.83
2023-01-17T07:08:19.303Z,14.67
2023-01-17T07:10:47.757Z,13.10
2023-01-17T07:13:15.820Z,12.53
2023-01-17T07:15:43.047Z,12.87
2023-01-17T07:18:10.099Z,13.20
2023-01-17T07:20:38.439Z,13.17
2023-01-17T07:23:06.169Z,11.47
2023-01-17T07:25:33.120Z,13.57
2023-01-17T07:28:00.222Z,12.37
2023-01-17T07:30:27.387Z,14.13
2023-01-17T07:32:56.755Z,11.53
2023-01-17T07:35:26.769Z,11.53
2023-01-17T07:37:54.788Z,11.00
2023-01-17T07:40:22.681Z,11.47
2023-01-17T07:42:49.826Z,13.90
2023-01-17T07:45:17.659Z,14.27
2023-01-17T07:47:44.829Z,17.27
2023-01-17T07:50:13.676Z,13.17
2023-01-17T07:52:40.690Z,11.83
2023-01-17T07:55:08.848Z,12.53
2023-01-17T07:57:35.978Z,9.07
2023-01-17T08:00:03.396Z,13.80
2023-01-17T08:02:31.090Z,13.30
2023-01-17T08:04:58.145Z,11.13
2023-01-17T08:07:25.065Z,11.73
2023-01-17T08:09:54.389Z,11.70
2023-01-17T08:12:21.453Z,12.60
2023-01-17T08:14:48.279Z,11.03
2023-01-17T08:17:17.033Z,12.93
2023-01-17T08:19:44.921Z,9.83
2023-01-17T08:22:14.757Z,11.10
2023-01-17T08:24:42.189Z,11.00
2023-01-17T08:27:09.434Z,11.10
2023-01-17T08:29:37.229Z,13.70
2023-01-17T08:32:04.516Z,12.27
2023-01-17T08:34:33.380Z,10.57
2023-01-17T08:37:00.340Z,9.93
2023-01-17T08:39:27.694Z,10.77
2023-01-17T08:41:54.668Z,15.10
2023-01-17T08:44:21.894Z,17.57
2023-01-17T08:46:49.066Z,13.60
2023-01-17T08:49:16.077Z,13.03
2023-01-17T08:51:43.132Z,15.67
2023-01-17T08:54:12.929Z,15.87
2023-01-17T08:56:40.042Z,11.50
2023-01-17T08:59:10.321Z,11.57
2023-01-17T09:01:40.919Z,15.83
2023-01-17T09:04:12.072Z,14.53
2023-01-17T09:06:41.433Z,14.93
2023-01-17T09:09:11.148Z,13.93
2023-01-17T09:11:38.568Z,12.83
2023-01-17T09:14:05.696Z,12.33
2023-01-17T09:16:34.228Z,11.03
2023-01-17T09:19:01.199Z,12.97
2023-01-17T09:21:28.335Z,9.17
2023-01-17T09:23:55.743Z,12.97
2023-01-17T09:26:25.309Z,13.53
2023-01-17T09:28:52.849Z,13.10
2023-01-17T09:31:21.405Z,12.33
2023-01-17T09:33:49.589Z,12.00
2023-01-17T09:36:16.738Z,12.47
2023-01-17T09:38:43.918Z,10.17
2023-01-17T09:41:32.239Z,10.33
2023-01-17T09:44:08.346Z,10.73
2023-01-17T09:46:42.787Z,12.73
2023-01-17T09:49:22.748Z,14.00
2023-01-17T09:51:49.605Z,13.10
2023-01-17T09:54:23.446Z,13.60
2023-01-17T09:57:28.668Z,12.50
2023-01-17T10:00:34.668Z,11.07
2023-01-17T10:03:28.774Z,11.23
2023-01-17T10:06:08.453Z,12.17
2023-01-17T10:08:50.295Z,11.20
2023-01-17T10:11:35.110Z,12.67
2023-01-17T10:14:38.515Z,10.00
2023-01-17T10:17:36.449Z,10.43
2023-01-17T10:20:20.230Z,8.80
2023-01-17T10:23:19.089Z,11.30
2023-01-17T10:25:50.627Z,9.80
2023-01-17T10:28:39.931Z,11.90
2023-01-17T10:31:16.059Z,9.57
2023-01-17T10:33:54.973Z,11.40
2023-01-17T10:36:27.532Z,10.77
2023-01-17T10:39:00.498Z,13.50
2023-01-17T10:41:36.278Z,10.00
2023-01-17T10:44:21.772Z,8.47
2023-01-17T10:46:54.697Z,10.67
2023-01-17T10:49:24.720Z,10.50
2023-01-17T10:52:03.242Z,10.17
2023-01-17T10:54:51.445Z,9.37
2023-01-17T10:57:24.040Z,13.73
2023-01-17T10:59:52.363Z,12.13
2023-01-17T11:02:29.266Z,11.17
2023-01-17T11:04:58.071Z,12.27
2023-01-17T11:07:28.114Z,11.83
2023-01-17T11:09:57.542Z,12.27
2023-01-17T11:12:32.341Z,11.17
2023-01-17T11:15:11.763Z,13.57
2023-01-17T11:17:46.350Z,11.47
2023-01-17T11:20:17.196Z,11.40
2023-01-17T11:22:49.257Z,10.50
2023-01-17T11:25:24.444Z,12.27
2023-01-17T11:28:00.979Z,12.63
2023-01-17T11:30:29.581Z,11.20
2023-01-17T11:33:03.294Z,11.43
2023-01-17T11:35:35.102Z,11.40
2023-01-17T11:38:19.513Z,10.97
2023-01-17T11:40:48.887Z,10.70
2023-01-17T11:43:26.265Z,11.03
2023-01-17T11:46:23.982Z,12.40
2023-01-17T11:49:01.467Z,10.13
2023-01-17T11:51:41.431Z,10.97
2023-01-17T11:54:28.865Z,10.50
2023-01-17T11:57:00.377Z,12.37
2023-01-17T11:59:38.822Z,10.27
2023-01-17T12:02:36.739Z,10.23
2023-01-17T12:05:25.745Z,10.23
2023-01-17T12:08:01.708Z,13.17
2023-01-17T12:10:31.690Z,13.60
2023-01-17T12:13:20.025Z,13.00
2023-01-17T12:16:23.851Z,11.57
2023-01-17T12:19:23.421Z,11.67
2023-01-17T12:21:58.332Z,16.00
2023-01-17T12:25:03.325Z,13.77
2023-01-17T12:28:08.765Z,16.77
2023-01-17T12:31:13.336Z,16.40
2023-01-17T12:34:23.046Z,18.27
2023-01-17T12:37:03.067Z,16.27
2023-01-17T12:39:39.285Z,18.57
2023-01-17T12:42:13.913Z,14.10
2023-01-17T12:44:56.306Z,14.00
2023-01-17T12:47:23.351Z,14.10
2023-01-17T12:49:56.269Z,16.73
2023-01-17T12:52:46.553Z,12.27
2023-01-17T12:55:21.071Z,12.57
2023-01-17T12:58:12.780Z,12.37
2023-01-17T13:00:39.775Z,11.67
2023-01-17T13:03:51.501Z,11.70
2023-01-17T13:06:44.714Z,15.97
2023-01-17T13:09:17.074Z,12.57
2023-01-17T13:12:21.225Z,13.13
2023-01-17T13:14:48.788Z,12.10
2023-01-17T13:17:45.060Z,15.53
2023-01-17T13:20:44.802Z,15.53
2023-01-17T13:23:38.332Z,11.63
2023-01-17T13:26:12.934Z,14.70
2023-01-17T13:29:12.787Z,13.10
2023-01-17T13:31:49.358Z,12.93
2023-01-17T13:34:37.996Z,12.33
2023-01-17T13:37:26.701Z,12.63
2023-01-17T13:40:30.528Z,11.27
2023-01-17T13:43:02.647Z,14.87
2023-01-17T13:45:37.739Z,15.47
2023-01-17T13:48:17.127Z,12.90
2023-01-17T13:50:51.056Z,12.57
2023-01-17T13:53:39.732Z,11.07
2023-01-17T13:56:26.802Z,12.27
2023-01-17T13:59:02.099Z,11.23
2023-01-17T14:01:32.418Z,14.87
2023-01-17T14:03:59.546Z,16.30
2023-01-17T14:06:44.822Z,15.73
2023-01-17T14:09:24.741Z,14.17
2023-01-17T14:11:55.535Z,15.00
2023-01-17T14:14:40.619Z,16.27
2023-01-17T14:17:23.186Z,14.33
2023-01-17T14:19:51.125Z,14.00
2023-01-17T14:22:20.967Z,14.57
2023-01-17T14:24:59.895Z,13.93
2023-01-17T14:27:29.251Z,15.57
2023-01-17T14:30:01.720Z,13.67
2023-01-17T14:32:35.470Z,15.57
2023-01-17T14:35:03.915Z,14.57
2023-01-17T14:37:48.028Z,16.93
2023-01-17T14:40:26.390Z,17.07
2023-01-17T14:43:00.701Z,14.10
2023-01-17T14:45:30.504Z,14.97
2023-01-17T14:48:06.312Z,16.37
2023-01-17T14:50:39.335Z,14.83
2023-01-17T14:53:13.082Z,17.53
2023-01-17T14:55:56.474Z,15.37
2023-01-17T14:58:31.929Z,15.37
2023-01-17T15:01:00.531Z,17.17
2023-01-17T15:03:28.682Z,26.03
2023-01-17T15:05:57.670Z,33.23
2023-01-17T15:08:31.106Z,31.47
2023-01-17T15:11:05.453Z,23.53
2023-01-17T15:13:53.355Z,18.17
2023-01-17T15:16:34.117Z,16.23
2023-01-17T15:19:02.459Z,21.97
2023-01-17T15:21:42.495Z,21.20
2023-01-17T15:24:19.504Z,21.07
2023-01-17T15:26:46.619Z,20.87
2023-01-17T15:29:21.223Z,20.37
2023-01-17T15:31:49.969Z,23.17
2023-01-17T15:34:30.331Z,25.57
2023-01-17T15:37:00.099Z,21.83
2023-01-17T15:39:33.394Z,32.10
2023-01-17T15:42:03.936Z,25.33
2023-01-17T15:44:48.428Z,31.87
2023-01-17T15:47:34.541Z,34.40
2023-01-17T15:50:30.207Z,37.70
2023-01-17T15:53:06.644Z,39.93
2023-01-17T15:55:39.965Z,41.40
2023-01-17T15:58:23.882Z,37.77
2023-01-17T16:00:51.137Z,34.10
2023-01-17T16:03:31.579Z,35.50
2023-01-17T16:06:00.563Z,30.33
2023-01-17T16:08:39.581Z,34.23
2023-01-17T16:11:10.466Z,31.87
2023-01-17T16:13:39.189Z,29.13
2023-01-17T16:16:13.835Z,35.00
2023-01-17T16:18:41.500Z,28.57
2023-01-17T16:21:28.781Z,31.00
2023-01-17T16:23:56.522Z,32.27
2023-01-17T16:26:23.866Z,37.63
2023-01-17T16:28:51.170Z,31.50
2023-01-17T16:31:18.709Z,32.23
2023-01-17T16:33:46.186Z,32.87
2023-01-17T16:36:16.662Z,36.37
2023-01-17T16:38:49.600Z,34.23
2023-01-17T16:41:16.492Z,39.47
2023-01-17T16:43:43.366Z,35.40
2023-01-17T16:46:12.658Z,33.97
2023-01-17T16:48:39.692Z,37.33
2023-01-17T16:51:07.964Z,38.43
2023-01-17T16:53:36.499Z,39.37
2023-01-17T16:56:10.164Z,37.77
2023-01-17T16:58:36.970Z,40.87
2023-01-17T17:01:09.073Z,30.90
2023-01-17T17:03:35.948Z,32.70
2023-01-17T17:06:02.750Z,32.63
2023-01-17T17:08:29.994Z,30.03
2023-01-17T17:11:24.727Z,36.13
2023-01-17T17:13:52.712Z,30.33
2023-01-17T17:16:29.938Z,30.53
2023-01-17T17:19:00.745Z,35.97
2023-01-17T17:21:28.835Z,40.20
2023-01-17T17:23:58.178Z,43.30
2023-01-17T17:26:27.472Z,45.40
2023-01-17T17:28:55.048Z,47.93
2023-01-17T17:31:21.992Z,46.13
2023-01-17T17:33:49.105Z,49.77
2023-01-17T17:36:17.515Z,52.53
2023-01-17T17:38:53.636Z,59.97
2023-01-17T17:41:28.817Z,54.23
2023-01-17T17:43:56.063Z,50.13
2023-01-17T17:46:25.149Z,57.47
2023-01-17T17:48:52.020Z,48.73
2023-01-17T17:51:30.474Z,47.33
2023-01-17T17:54:08.690Z,44.27
2023-01-17T17:56:36.918Z,47.50
2023-01-17T17:59:05.391Z,39.83
2023-01-17T18:01:32.523Z,47.23
2023-01-17T18:04:03.949Z,44.97
2023-01-17T18:06:30.792Z,72.87
2023-01-17T18:08:57.572Z,73.40
2023-01-17T18:11:26.807Z,57.80
2023-01-17T18:13:56.526Z,46.23
2023-01-17T18:16:30.989Z,47.57
2023-01-17T18:18:59.380Z,70.53
2023-01-17T18:21:34.923Z,56.67
2023-01-17T18:24:07.389Z,52.77
2023-01-17T18:26:43.346Z,50.80
2023-01-17T18:29:14.716Z,54.77
2023-01-17T18:31:43.036Z,50.63
2023-01-17T18:34:12.840Z,50.60
2023-01-17T18:36:39.823Z,64.03
2023-01-17T18:39:16.035Z,61.57
2023-01-17T18:41:42.977Z,61.47
2023-01-17T18:44:11.054Z,60.67
2023-01-17T18:46:40.089Z,49.77
2023-01-17T18:49:07.704Z,59.93
2023-01-17T18:51:35.257Z,52.93
2023-01-17T18:54:05.854Z,51.67
2023-01-17T18:56:36.506Z,52.20
2023-01-17T18:59:06.182Z,56.73
2023-01-17T19:01:35.873Z,54.00
2023-01-17T19:04:04.748Z,55.47
2023-01-17T19:06:37.042Z,54.03
2023-01-17T19:09:05.480Z,49.20
2023-01-17T19:11:32.275Z,41.90
2023-01-17T19:13:59.338Z,42.57
2023-01-17T19:16:32.596Z,38.70
2023-01-17T19:19:03.569Z,43.70
2023-01-17T19:21:30.580Z,42.87
2023-01-17T19:23:58.217Z,49.53
2023-01-17T19:26:27.369Z,36.60
2023-01-17T19:28:56.371Z,39.83
2023-01-17T19:31:30.896Z,38.33
2023-01-17T19:33:59.504Z,42.63
2023-01-17T19:36:29.542Z,45.67
2023-01-17T19:39:04.429Z,46.27
2023-01-17T19:41:34.343Z,42.97
2023-01-17T19:44:04.323Z,38.37
2023-01-17T19:46:32.410Z,50.30
2023-01-17T19:48:59.799Z,42.63
2023-01-17T19:51:27.155Z,41.87
2023-01-17T19:53:54.886Z,49.30
2023-01-17T19:56:24.468Z,54.50
2023-01-17T19:58:52.277Z,55.03
2023-01-17T20:01:21.601Z,50.77
2023-01-17T20:03:49.687Z,47.23
2023-01-17T20:06:22.136Z,45.17
2023-01-17T20:08:49.226Z,41.77
2023-01-17T20:11:19.638Z,38.60
2023-01-17T20:13:48.173Z,37.10
2023-01-17T20:16:17.351Z,42.23
2023-01-17T20:18:45.681Z,50.73
2023-01-17T20:21:17.422Z,44.07
2023-01-17T20:23:46.973Z,43.00
2023-01-17T20:26:23.058Z,41.70
2023-01-17T20:28:51.562Z,41.50
2023-01-17T20:31:23.730Z,41.73
2023-01-17T20:33:54.148Z,40.70
2023-01-17T20:36:23.095Z,38.40
2023-01-17T20:38:50.412Z,44.37
2023-01-17T20:41:17.156Z,39.83
2023-01-17T20:43:46.346Z,42.50
2023-01-17T20:46:14.337Z,44.07
2023-01-17T20:48:49.840Z,45.97
2023-01-17T20:51:17.851Z,43.03
2023-01-17T20:53:46.113Z,45.40
2023-01-17T20:56:15.031Z,51.20
2023-01-17T20:58:42.212Z,47.07
2023-01-17T21:01:10.463Z,46.03
2023-01-17T21:03:38.838Z,46.47
2023-01-17T21:06:15.095Z,57.50
2023-01-17T21:08:44.174Z,46.53
2023-01-17T21:11:12.828Z,53.20
2023-01-17T21:13:39.923Z,70.17
2023-01-17T21:16:09.304Z,80.03
2023-01-17T21:18:36.558Z,81.60
2023-01-17T21:21:08.001Z,61.13
2023-01-17T21:23:39.266Z,53.33
2023-01-17T21:26:07.937Z,47.53
2023-01-17T21:28:37.464Z,50.03
2023-01-17T21:31:24.618Z,43.93
2023-01-17T21:34:03.126Z,57.60
2023-01-17T21:36:35.752Z,54.00
2023-01-17T21:39:06.613Z,43.83
2023-01-17T21:41:36.520Z,48.50
2023-01-17T21:44:08.060Z,61.20
2023-01-17T21:46:39.481Z,57.60
2023-01-17T21:49:08.758Z,54.87
2023-01-17T21:51:53.517Z,54.27
2023-01-17T21:54:48.285Z,55.17
2023-01-17T21:57:37.341Z,47.50
2023-01-17T22:00:07.293Z,47.27
2023-01-17T22:02:34.435Z,50.43
2023-01-17T22:05:01.561Z,51.77
2023-01-17T22:07:29.150Z,50.03
2023-01-17T22:09:57.091Z,55.40
2023-01-17T22:12:24.437Z,57.47
2023-01-17T22:14:51.364Z,50.90
2023-01-17T22:17:18.257Z,53.50
2023-01-17T22:19:46.054Z,58.87
2023-01-17T22:22:13.312Z,61.73
2023-01-17T22:24:40.641Z,64.00
2023-01-17T22:27:09.970Z,68.67
2023-01-17T22:29:39.845Z,91.57
2023-01-17T22:32:06.948Z,107.13
2023-01-17T22:34:33.790Z,170.47
2023-01-17T22:37:02.448Z,196.03
2023-01-17T22:39:29.311Z,199.60
2023-01-17T22:41:57.459Z,207.93
2023-01-17T22:44:25.521Z,245.50
2023-01-17T22:46:54.441Z,236.40
2023-01-17T22:49:23.492Z,297.20
2023-01-17T22:51:53.547Z,164.67
2023-01-17T22:54:22.459Z,138.33
2023-01-17T22:56:51.776Z,98.43
2023-01-17T22:59:18.574Z,76.90
2023-01-17T23:01:45.421Z,88.17
2023-01-17T23:04:17.274Z,93.47
2023-01-17T23:06:44.140Z,69.23
2023-01-17T23:09:13.924Z,61.37
2023-01-17T23:11:50.930Z,61.80
2023-01-17T23:14:23.957Z,53.23
2023-01-17T23:17:18.173Z,46.40
2023-01-17T23:19:54.487Z,45.47
2023-01-17T23:22:27.609Z,50.50
2023-01-17T23:24:58.861Z,50.20
2023-01-17T23:27:58.928Z,48.27
2023-01-17T23:30:37.481Z,54.50
2023-01-17T23:33:13.274Z,50.40
2023-01-17T23:35:43.147Z,56.13
2023-01-17T23:38:26.585Z,60.57
2023-01-17T23:41:18.227Z,76.00
2023-01-17T23:43:51.218Z,90.93
2023-01-17T23:46:18.549Z,77.43
2023-01-17T23:48:45.369Z,65.53
2023-01-17T23:51:12.332Z,73.27
2023-01-17T23:53:40.636Z,95.87
2023-01-17T23:56:20.226Z,60.93
2023-01-17T23:58:47.323Z,57.20
